createdAt,value
2024-01-28T00:02:06.101Z,20.67
2024-01-28T00:04:32.918Z,20.67
2024-01-28T00:06:59.734Z,20.66
2024-01-28T00:09:26.568Z,20.60
2024-01-28T00:11:53.311Z,20.64
2024-01-28T00:14:20.062Z,20.64
2024-01-28T00:16:46.706Z,20.61
2024-01-28T00:19:13.506Z,20.62
2024-01-28T00:21:40.250Z,20.63
2024-01-28T00:24:08.124Z,20.63
2024-01-28T00:26:39.036Z,20.62
2024-01-28T00:29:05.854Z,20.64
2024-01-28T00:31:32.685Z,20.57
2024-01-28T00:34:00.075Z,20.62
2024-01-28T00:36:26.798Z,20.62
2024-01-28T00:38:54.762Z,20.29
2024-01-28T00:41:27.432Z,20.53
2024-01-28T00:43:54.163Z,20.60
2024-01-28T00:46:26.447Z,20.61
2024-01-28T00:48:53.659Z,20.61
2024-01-28T00:51:20.525Z,20.61
2024-01-28T00:53:47.267Z,20.60
2024-01-28T00:56:17.589Z,20.60
2024-01-28T00:58:45.082Z,20.59
2024-01-28T01:01:11.966Z,20.57
2024-01-28T01:03:38.975Z,20.59
2024-01-28T01:06:08.969Z,20.54
2024-01-28T01:08:35.776Z,20.59
2024-01-28T01:11:04.927Z,20.59
2024-01-28T01:13:33.217Z,20.53
2024-01-28T01:16:00.427Z,20.56
2024-01-28T01:18:27.390Z,20.56
2024-01-28T01:20:54.243Z,20.57
2024-01-28T01:23:20.928Z,20.57
2024-01-28T01:25:47.649Z,20.49
2024-01-28T01:28:14.603Z,20.58
2024-01-28T01:30:41.768Z,20.57
2024-01-28T01:33:08.715Z,20.58
2024-01-28T01:35:35.507Z,20.57
2024-01-28T01:38:02.486Z,20.55
2024-01-28T01:40:29.174Z,20.56
2024-01-28T01:42:55.827Z,20.52
2024-01-28T01:45:22.436Z,20.55
2024-01-28T01:47:49.355Z,20.53
2024-01-28T01:50:16.203Z,20.54
2024-01-28T01:52:45.809Z,20.50
2024-01-28T01:55:13.350Z,20.52
2024-01-28T01:57:43.299Z,20.53
2024-01-28T02:00:15.900Z,20.54
2024-01-28T02:02:47.104Z,20.54
2024-01-28T02:05:14.487Z,20.50
2024-01-28T02:07:41.229Z,20.49
2024-01-28T02:10:08.489Z,20.54
2024-01-28T02:12:35.075Z,20.54
2024-01-28T02:15:06.179Z,20.54
2024-01-28T02:17:33.403Z,20.54
2024-01-28T02:20:00.541Z,20.47
2024-01-28T02:22:27.307Z,20.53
2024-01-28T02:24:54.580Z,20.53
2024-01-28T02:27:21.407Z,20.54
2024-01-28T02:29:48.157Z,20.53
2024-01-28T02:32:17.413Z,20.53
2024-01-28T02:34:44.796Z,20.52
2024-01-28T02:37:12.356Z,20.53
2024-01-28T02:39:40.098Z,20.46
2024-01-28T02:42:07.492Z,20.51
2024-01-28T02:44:34.270Z,20.53
2024-01-28T02:47:03.944Z,20.51
2024-01-28T02:49:30.745Z,20.54
2024-01-28T02:51:57.679Z,20.55
2024-01-28T02:54:24.759Z,20.56
2024-01-28T02:56:53.348Z,20.53
2024-01-28T02:59:20.100Z,20.55
2024-01-28T03:01:48.111Z,20.54
2024-01-28T03:04:15.373Z,20.51
2024-01-28T03:06:42.931Z,20.53
2024-01-28T03:09:10.119Z,20.52
2024-01-28T03:11:37.030Z,20.54
2024-01-28T03:14:03.653Z,20.54
2024-01-28T03:16:30.461Z,20.52
2024-01-28T03:18:57.383Z,20.54
2024-01-28T03:21:24.297Z,20.56
2024-01-28T03:23:51.010Z,20.56
2024-01-28T03:26:20.620Z,20.55
2024-01-28T03:28:47.364Z,20.47
2024-01-28T03:31:14.511Z,20.53
2024-01-28T03:33:41.954Z,20.57
2024-01-28T03:36:09.235Z,20.56
2024-01-28T03:38:35.973Z,20.56
2024-01-28T03:41:02.950Z,20.54
2024-01-28T03:43:29.723Z,20.57
2024-01-28T03:45:56.426Z,20.54
2024-01-28T03:48:23.337Z,20.56
2024-01-28T03:50:50.093Z,20.57
2024-01-28T03:53:17.087Z,20.57
2024-01-28T03:55:44.869Z,20.55
2024-01-28T03:58:12.132Z,20.60
2024-01-28T04:00:39.205Z,20.58
2024-01-28T04:03:06.419Z,20.58
2024-01-28T04:05:34.178Z,20.60
2024-01-28T04:08:02.132Z,20.61
2024-01-28T04:10:29.195Z,20.61
2024-01-28T04:12:56.032Z,20.62
2024-01-28T04:15:23.010Z,20.60
2024-01-28T04:17:49.795Z,20.59
2024-01-28T04:20:16.770Z,20.62
2024-01-28T04:22:43.576Z,20.60
2024-01-28T04:25:10.600Z,20.62
2024-01-28T04:27:37.274Z,20.61
2024-01-28T04:30:06.156Z,20.62
2024-01-28T04:32:32.779Z,20.59
2024-01-28T04:34:59.517Z,20.62
2024-01-28T04:37:27.441Z,20.63
2024-01-28T04:39:57.334Z,20.58
2024-01-28T04:42:24.366Z,20.62
2024-01-28T04:44:51.526Z,20.62
2024-01-28T04:47:18.244Z,20.61
2024-01-28T04:49:46.272Z,20.60
2024-01-28T04:52:13.320Z,20.65
2024-01-28T04:54:41.828Z,20.61
2024-01-28T04:57:08.730Z,20.61
2024-01-28T04:59:35.627Z,20.65
2024-01-28T05:02:02.420Z,20.65
2024-01-28T05:04:29.379Z,20.59
2024-01-28T05:06:56.158Z,20.66
2024-01-28T05:09:23.486Z,20.59
2024-01-28T05:11:50.707Z,20.66
2024-01-28T05:14:17.625Z,20.64
2024-01-28T05:16:49.125Z,20.64
2024-01-28T05:19:16.149Z,20.62
2024-01-28T05:21:43.080Z,20.64
2024-01-28T05:24:10.224Z,20.66
2024-01-28T05:26:38.398Z,20.64
2024-01-28T05:29:07.656Z,20.64
2024-01-28T05:31:34.729Z,20.65
2024-01-28T05:34:02.505Z,20.59
2024-01-28T05:36:30.165Z,20.66
2024-01-28T05:38:57.080Z,20.67
2024-01-28T05:41:23.697Z,20.65
2024-01-28T05:43:50.449Z,20.64
2024-01-28T05:46:17.269Z,20.63
2024-01-28T05:48:44.123Z,20.60
2024-01-28T05:51:11.018Z,20.64
2024-01-28T05:53:37.896Z,20.68
2024-01-28T05:56:05.265Z,20.65
2024-01-28T05:58:31.975Z,20.69
2024-01-28T06:01:02.815Z,20.69
2024-01-28T06:03:30.080Z,20.61
2024-01-28T06:05:56.720Z,20.68
2024-01-28T06:08:24.309Z,20.68
2024-01-28T06:10:50.931Z,20.67
2024-01-28T06:13:17.782Z,20.68
2024-01-28T06:15:44.615Z,20.67
2024-01-28T06:18:11.301Z,20.68
2024-01-28T06:20:37.980Z,20.68
2024-01-28T06:23:04.972Z,20.70
2024-01-28T06:25:31.561Z,20.71
2024-01-28T06:27:58.168Z,20.70
2024-01-28T06:30:25.051Z,20.73
2024-01-28T06:32:51.813Z,20.73
2024-01-28T06:35:19.086Z,20.72
2024-01-28T06:37:45.941Z,20.72
2024-01-28T06:40:13.847Z,20.72
2024-01-28T06:42:40.589Z,20.70
2024-01-28T06:45:09.441Z,20.70
2024-01-28T06:47:36.395Z,20.71
2024-01-28T06:50:03.694Z,20.71
2024-01-28T06:52:30.590Z,20.70
2024-01-28T06:54:57.473Z,20.71
2024-01-28T06:57:24.277Z,20.70
2024-01-28T06:59:51.001Z,20.73
2024-01-28T07:02:17.739Z,20.72
2024-01-28T07:04:44.496Z,20.75
2024-01-28T07:07:11.330Z,20.67
2024-01-28T07:09:38.030Z,20.74
2024-01-28T07:12:07.047Z,20.66
2024-01-28T07:14:33.820Z,20.74
2024-01-28T07:17:00.868Z,20.71
2024-01-28T07:19:28.126Z,20.74
2024-01-28T07:21:55.042Z,20.72
2024-01-28T07:24:21.809Z,20.75
2024-01-28T07:26:48.463Z,20.73
2024-01-28T07:29:15.196Z,20.71
2024-01-28T07:31:41.916Z,20.76
2024-01-28T07:34:08.662Z,20.75
2024-01-28T07:36:38.644Z,20.73
2024-01-28T07:39:08.049Z,20.67
2024-01-28T07:41:37.210Z,20.73
2024-01-28T07:44:04.316Z,20.76
2024-01-28T07:46:31.008Z,20.74
2024-01-28T07:48:57.928Z,20.77
2024-01-28T07:51:24.754Z,20.77
2024-01-28T07:53:51.612Z,20.77
2024-01-28T07:56:18.326Z,20.78
2024-01-28T07:58:45.209Z,20.78
2024-01-28T08:01:12.038Z,20.81
2024-01-28T08:03:39.568Z,20.81
2024-01-28T08:06:08.808Z,20.81
2024-01-28T08:08:35.541Z,20.79
2024-01-28T08:11:02.987Z,20.82
2024-01-28T08:13:29.747Z,20.85
2024-01-28T08:16:03.147Z,20.81
2024-01-28T08:18:30.258Z,20.81
2024-01-28T08:20:57.490Z,20.85
2024-01-28T08:23:24.523Z,20.84
2024-01-28T08:25:51.286Z,20.85
2024-01-28T08:28:18.205Z,20.85
2024-01-28T08:30:46.080Z,20.87
2024-01-28T08:33:13.229Z,20.87
2024-01-28T08:35:42.594Z,20.88
2024-01-28T08:38:09.674Z,20.84
2024-01-28T08:40:36.453Z,20.87
2024-01-28T08:43:05.760Z,20.88
2024-01-28T08:45:33.194Z,20.86
2024-01-28T08:48:01.111Z,20.88
2024-01-28T08:50:27.813Z,20.84
2024-01-28T08:52:54.481Z,20.89
2024-01-28T08:55:21.055Z,20.89
2024-01-28T08:57:47.957Z,20.89
2024-01-28T09:00:15.452Z,20.90
2024-01-28T09:02:42.424Z,20.87
2024-01-28T09:05:09.593Z,20.92
2024-01-28T09:07:36.588Z,20.89
2024-01-28T09:10:03.706Z,20.98
2024-01-28T09:12:30.366Z,21.00
2024-01-28T09:14:57.070Z,21.01
2024-01-28T09:17:23.787Z,21.00
2024-01-28T09:19:50.367Z,21.01
2024-01-28T09:22:17.184Z,20.95
2024-01-28T09:24:43.901Z,20.99
2024-01-28T09:27:11.613Z,20.94
2024-01-28T09:29:39.564Z,20.99
2024-01-28T09:32:06.545Z,21.00
2024-01-28T09:34:33.287Z,21.02
2024-01-28T09:37:00.135Z,21.00
2024-01-28T09:39:26.999Z,21.01
2024-01-28T09:42:01.962Z,20.97
2024-01-28T09:44:28.676Z,21.02
2024-01-28T09:46:55.593Z,21.01
2024-01-28T09:49:23.930Z,21.02
2024-01-28T09:51:50.838Z,21.01
2024-01-28T09:54:18.531Z,21.01
2024-01-28T09:56:46.771Z,21.03
2024-01-28T09:59:16.718Z,21.05
2024-01-28T10:01:44.098Z,21.01
2024-01-28T10:04:12.090Z,21.07
2024-01-28T10:06:39.038Z,21.09
2024-01-28T10:09:06.484Z,21.08
2024-01-28T10:11:34.304Z,21.10
2024-01-28T10:14:00.890Z,21.13
2024-01-28T10:16:31.933Z,21.12
2024-01-28T10:18:59.021Z,21.09
2024-01-28T10:21:26.337Z,21.10
2024-01-28T10:23:54.469Z,21.15
2024-01-28T10:26:21.838Z,21.16
2024-01-28T10:28:48.476Z,21.16
2024-01-28T10:31:15.167Z,21.16
2024-01-28T10:33:42.063Z,21.15
2024-01-28T10:36:10.611Z,21.10
2024-01-28T10:38:44.616Z,21.11
2024-01-28T10:41:16.520Z,21.14
2024-01-28T10:43:51.144Z,21.12
2024-01-28T10:46:26.891Z,21.13
2024-01-28T10:48:59.121Z,21.06
2024-01-28T10:51:26.170Z,21.14
2024-01-28T10:53:53.495Z,21.17
2024-01-28T10:56:20.726Z,21.19
2024-01-28T10:58:47.479Z,21.18
2024-01-28T11:01:14.817Z,21.20
2024-01-28T11:03:41.708Z,21.20
2024-01-28T11:06:08.587Z,21.22
2024-01-28T11:08:36.033Z,21.24
2024-01-28T11:11:02.865Z,21.25
2024-01-28T11:13:29.560Z,21.27
2024-01-28T11:15:56.603Z,21.24
2024-01-28T11:18:33.394Z,21.27
2024-01-28T11:21:12.671Z,21.26
2024-01-28T11:23:44.515Z,21.26
2024-01-28T11:26:19.024Z,21.27
2024-01-28T11:28:53.883Z,21.26
2024-01-28T11:31:33.619Z,21.28
2024-01-28T11:34:21.178Z,21.29
2024-01-28T11:36:55.389Z,21.30
2024-01-28T11:39:49.673Z,21.29
2024-01-28T11:42:16.541Z,21.06
2024-01-28T11:44:47.701Z,21.30
2024-01-28T11:47:18.634Z,21.30
2024-01-28T11:49:45.888Z,21.31
2024-01-28T11:52:13.225Z,21.30
2024-01-28T11:54:40.319Z,21.30
2024-01-28T11:57:07.284Z,21.31
2024-01-28T11:59:35.387Z,21.27
2024-01-28T12:02:06.002Z,21.30
2024-01-28T12:04:32.740Z,21.28
2024-01-28T12:07:00.903Z,21.33
2024-01-28T12:09:31.322Z,21.31
2024-01-28T12:11:58.385Z,21.32
2024-01-28T12:14:25.373Z,21.33
2024-01-28T12:16:52.137Z,21.34
2024-01-28T12:19:19.433Z,21.34
2024-01-28T12:21:48.400Z,21.37
2024-01-28T12:24:15.480Z,21.35
2024-01-28T12:26:44.894Z,21.37
2024-01-28T12:29:11.986Z,21.37
2024-01-28T12:31:39.082Z,21.38
2024-01-28T12:34:16.160Z,21.40
2024-01-28T12:36:43.120Z,21.40
2024-01-28T12:39:09.868Z,21.40
2024-01-28T12:41:36.887Z,21.41
2024-01-28T12:44:04.899Z,21.41
2024-01-28T12:46:33.096Z,21.40
2024-01-28T12:49:00.647Z,21.44
2024-01-28T12:51:27.740Z,21.44
2024-01-28T12:53:54.713Z,21.46
2024-01-28T12:56:21.547Z,21.44
2024-01-28T12:58:48.431Z,21.20
2024-01-28T13:03:41.050Z,21.43
2024-01-28T13:06:08.945Z,21.47
2024-01-28T13:08:36.312Z,21.45
2024-01-28T13:11:05.290Z,21.49
2024-01-28T13:13:34.977Z,21.50
2024-01-28T13:16:02.115Z,21.51
2024-01-28T13:18:34.054Z,21.51
2024-01-28T13:21:02.927Z,21.53
2024-01-28T13:23:29.639Z,21.54
2024-01-28T13:25:56.356Z,21.54
2024-01-28T13:28:23.167Z,21.53
2024-01-28T13:30:50.119Z,21.53
2024-01-28T13:33:16.981Z,21.55
2024-01-28T13:35:44.032Z,21.58
2024-01-28T13:38:10.677Z,21.58
2024-01-28T13:40:37.463Z,21.59
2024-01-28T13:43:04.577Z,21.57
2024-01-28T13:45:31.381Z,21.60
2024-01-28T13:47:58.243Z,21.52
2024-01-28T13:50:25.038Z,21.56
2024-01-28T13:52:51.715Z,21.59
2024-01-28T13:55:18.516Z,21.57
2024-01-28T13:57:45.306Z,21.59
2024-01-28T14:00:12.874Z,21.61
2024-01-28T14:02:41.810Z,21.59
2024-01-28T14:05:11.723Z,21.56
2024-01-28T14:07:38.954Z,21.59
2024-01-28T14:10:06.268Z,21.56
2024-01-28T14:12:33.175Z,21.59
2024-01-28T14:15:00.230Z,21.57
2024-01-28T14:17:27.043Z,21.56
2024-01-28T14:19:53.914Z,21.58
2024-01-28T14:22:20.589Z,21.58
2024-01-28T14:24:47.547Z,21.56
2024-01-28T14:27:14.565Z,21.54
2024-01-28T14:29:41.443Z,21.53
2024-01-28T14:32:08.276Z,21.46
2024-01-28T14:34:35.276Z,21.50
2024-01-28T14:37:02.628Z,21.46
2024-01-28T14:39:31.618Z,21.47
2024-01-28T14:42:03.303Z,21.48
2024-01-28T14:44:30.102Z,21.44
2024-01-28T14:47:00.430Z,21.45
2024-01-28T14:49:28.096Z,21.45
2024-01-28T14:51:55.264Z,21.44
2024-01-28T14:54:22.145Z,21.45
2024-01-28T14:56:49.085Z,21.45
2024-01-28T14:59:15.722Z,21.41
2024-01-28T15:01:42.426Z,21.43
2024-01-28T15:04:09.359Z,21.44
2024-01-28T15:06:36.298Z,21.40
2024-01-28T15:09:05.863Z,21.42
2024-01-28T15:11:36.046Z,21.44
2024-01-28T15:14:03.275Z,21.39
2024-01-28T15:16:30.209Z,21.42
2024-01-28T15:18:57.522Z,21.42
2024-01-28T15:21:27.070Z,21.41
2024-01-28T15:23:53.858Z,21.39
2024-01-28T15:26:21.273Z,21.41
2024-01-28T15:28:48.065Z,21.17
2024-01-28T15:31:14.869Z,21.39
2024-01-28T15:33:41.946Z,21.41
2024-01-28T15:36:12.531Z,21.40
2024-01-28T15:38:43.479Z,21.40
2024-01-28T15:41:11.769Z,21.40
2024-01-28T15:43:38.491Z,21.38
2024-01-28T15:46:08.470Z,21.40
2024-01-28T15:48:36.776Z,21.40
2024-01-28T15:51:05.150Z,21.39
2024-01-28T15:53:32.382Z,21.38
2024-01-28T15:55:59.465Z,21.37
2024-01-28T15:58:27.582Z,21.38
2024-01-28T16:00:54.401Z,21.38
2024-01-28T16:03:21.274Z,21.37
2024-01-28T16:05:48.020Z,21.38
2024-01-28T16:08:15.091Z,21.36
2024-01-28T16:10:42.016Z,21.34
2024-01-28T16:13:08.887Z,21.39
2024-01-28T16:15:35.799Z,21.39
2024-01-28T16:18:02.893Z,21.39
2024-01-28T16:20:29.917Z,21.39
2024-01-28T16:23:00.424Z,21.38
2024-01-28T16:25:29.529Z,21.38
2024-01-28T16:28:00.931Z,21.39
2024-01-28T16:30:28.922Z,21.40
2024-01-28T16:32:55.851Z,21.41
2024-01-28T16:35:22.959Z,21.40
2024-01-28T16:37:53.830Z,21.41
2024-01-28T16:40:21.058Z,21.42
2024-01-28T16:42:48.272Z,21.41
2024-01-28T16:45:17.574Z,21.41
2024-01-28T16:47:45.382Z,21.41
2024-01-28T16:50:13.986Z,21.42
2024-01-28T16:52:41.696Z,21.38
2024-01-28T16:55:09.075Z,21.40
2024-01-28T16:57:36.057Z,21.41
2024-01-28T17:00:03.662Z,21.43
2024-01-28T17:02:30.341Z,21.37
2024-01-28T17:05:00.400Z,21.41
2024-01-28T17:07:28.579Z,21.41
2024-01-28T17:09:55.400Z,21.41
2024-01-28T17:12:22.485Z,21.41
2024-01-28T17:14:49.420Z,21.40
2024-01-28T17:17:16.241Z,21.40
2024-01-28T17:19:42.984Z,21.41
2024-01-28T17:22:10.327Z,21.41
2024-01-28T17:24:37.529Z,21.38
2024-01-28T17:27:04.854Z,21.34
2024-01-28T17:29:31.625Z,21.41
2024-01-28T17:31:58.439Z,21.42
2024-01-28T17:34:25.253Z,21.43
2024-01-28T17:36:52.629Z,21.42
2024-01-28T17:39:19.432Z,21.43
2024-01-28T17:41:46.130Z,21.44
2024-01-28T17:44:15.087Z,21.44
2024-01-28T17:46:41.952Z,21.42
2024-01-28T17:49:08.883Z,21.40
2024-01-28T17:51:35.911Z,21.41
2024-01-28T17:54:02.812Z,21.39
2024-01-28T17:56:30.244Z,21.38
2024-01-28T17:58:57.093Z,21.39
2024-01-28T18:01:24.953Z,21.38
2024-01-28T18:03:51.880Z,21.38
2024-01-28T18:06:19.258Z,21.33
2024-01-28T18:08:46.159Z,21.37
2024-01-28T18:11:13.875Z,21.36
2024-01-28T18:13:41.364Z,21.36
2024-01-28T18:16:11.917Z,21.32
2024-01-28T18:18:38.797Z,21.33
2024-01-28T18:21:05.751Z,21.37
2024-01-28T18:23:32.591Z,21.32
2024-01-28T18:25:59.655Z,21.35
2024-01-28T18:28:26.824Z,21.33
2024-01-28T18:30:53.550Z,21.30
2024-01-28T18:33:20.452Z,21.34
2024-01-28T18:35:52.254Z,21.35
2024-01-28T18:38:19.549Z,21.34
2024-01-28T18:43:03.213Z,21.33
2024-01-28T18:45:29.965Z,21.34
2024-01-28T18:47:56.690Z,21.32
2024-01-28T18:50:23.661Z,21.33
2024-01-28T18:52:50.514Z,21.32
2024-01-28T18:55:17.247Z,21.32
2024-01-28T18:57:44.074Z,21.33
2024-01-28T19:00:15.025Z,21.28
2024-01-28T19:02:41.856Z,21.31
2024-01-28T19:05:09.013Z,21.31
2024-01-28T19:07:36.290Z,21.30
2024-01-28T19:10:03.307Z,21.31
2024-01-28T19:12:30.056Z,21.32
2024-01-28T19:14:57.558Z,21.31
2024-01-28T19:17:24.782Z,21.30
2024-01-28T19:19:51.468Z,21.30
2024-01-28T19:22:18.124Z,21.29
2024-01-28T19:24:45.377Z,21.28
2024-01-28T19:27:12.327Z,21.24
2024-01-28T19:29:40.301Z,21.28
2024-01-28T19:32:07.493Z,21.28
2024-01-28T19:34:34.432Z,20.98
2024-01-28T19:37:01.400Z,21.28
2024-01-28T19:39:34.192Z,21.27
2024-01-28T19:42:03.011Z,21.25
2024-01-28T19:44:30.440Z,21.25
2024-01-28T19:46:57.128Z,21.26
2024-01-28T19:49:24.018Z,21.26
2024-01-28T19:51:50.911Z,21.25
2024-01-28T19:54:21.876Z,21.21
2024-01-28T19:56:49.406Z,21.24
2024-01-28T19:59:16.062Z,21.25
2024-01-28T20:01:42.818Z,21.25
2024-01-28T20:04:09.708Z,21.21
2024-01-28T20:06:37.863Z,21.25
2024-01-28T20:09:05.902Z,20.97
2024-01-28T20:11:32.907Z,21.24
2024-01-28T20:13:59.697Z,21.25
2024-01-28T20:16:26.520Z,21.27
2024-01-28T20:18:53.453Z,21.27
2024-01-28T20:21:20.390Z,21.26
2024-01-28T20:23:48.035Z,21.27
2024-01-28T20:26:19.971Z,21.28
2024-01-28T20:28:47.136Z,21.27
2024-01-28T20:31:18.443Z,21.27
2024-01-28T20:33:45.385Z,21.26
2024-01-28T20:36:12.079Z,21.26
2024-01-28T20:38:38.826Z,21.26
2024-01-28T20:41:06.627Z,21.27
2024-01-28T20:43:33.334Z,21.27
2024-01-28T20:46:00.894Z,21.27
2024-01-28T20:48:28.806Z,21.27
2024-01-28T20:50:55.648Z,21.27
2024-01-28T20:53:22.619Z,21.23
2024-01-28T20:55:50.145Z,21.25
2024-01-28T20:58:16.909Z,21.30
2024-01-28T21:00:44.129Z,21.30
2024-01-28T21:03:11.356Z,21.31
2024-01-28T21:05:38.241Z,21.32
2024-01-28T21:08:05.365Z,21.34
2024-01-28T21:10:32.082Z,21.35
2024-01-28T21:12:59.033Z,21.33
2024-01-28T21:15:25.955Z,21.31
2024-01-28T21:17:55.370Z,21.30
2024-01-28T21:20:23.435Z,21.30
2024-01-28T21:22:50.407Z,21.33
2024-01-28T21:25:17.103Z,21.34
2024-01-28T21:27:46.804Z,21.35
2024-01-28T21:30:14.551Z,21.30
2024-01-28T21:32:41.502Z,21.35
2024-01-28T21:35:08.916Z,21.35
2024-01-28T21:37:35.637Z,21.32
2024-01-28T21:40:02.468Z,21.34
2024-01-28T21:42:29.274Z,21.32
2024-01-28T21:44:55.938Z,21.29
2024-01-28T21:47:22.611Z,21.31
2024-01-28T21:49:49.279Z,21.31
2024-01-28T21:52:16.060Z,21.29
2024-01-28T21:54:42.905Z,21.29
2024-01-28T21:57:09.629Z,21.23
2024-01-28T21:59:36.354Z,21.27
2024-01-28T22:02:02.958Z,21.26
2024-01-28T22:04:29.981Z,21.26
2024-01-28T22:06:56.907Z,21.25
2024-01-28T22:09:23.968Z,21.26
2024-01-28T22:11:50.611Z,21.25
2024-01-28T22:14:18.052Z,21.24
2024-01-28T22:16:44.728Z,21.23
2024-01-28T22:19:11.506Z,21.25
2024-01-28T22:21:38.275Z,21.24
2024-01-28T22:24:08.216Z,21.24
2024-01-28T22:26:34.995Z,21.24
2024-01-28T22:29:01.668Z,21.20
2024-01-28T22:31:28.770Z,21.17
2024-01-28T22:33:57.412Z,21.21
2024-01-28T22:36:24.724Z,21.20
2024-01-28T22:38:51.399Z,21.20
2024-01-28T22:41:18.072Z,21.18
2024-01-28T22:43:44.882Z,21.17
2024-01-28T22:46:11.921Z,21.19
2024-01-28T22:48:38.684Z,21.15
2024-01-28T22:51:06.348Z,21.20
2024-01-28T22:53:35.965Z,21.16
2024-01-28T22:56:04.689Z,21.19
2024-01-28T22:58:31.669Z,21.19
2024-01-28T23:01:04.334Z,21.14
2024-01-28T23:03:31.603Z,21.18
2024-01-28T23:05:58.703Z,21.14
2024-01-28T23:08:25.722Z,21.18
2024-01-28T23:10:52.870Z,21.17
2024-01-28T23:13:19.612Z,21.17
2024-01-28T23:15:46.303Z,21.17
2024-01-28T23:18:22.139Z,21.15
2024-01-28T23:20:53.000Z,21.16
2024-01-28T23:23:19.866Z,21.16
2024-01-28T23:25:46.485Z,21.16
2024-01-28T23:28:13.290Z,21.15
2024-01-28T23:30:40.001Z,21.11
2024-01-28T23:33:06.947Z,21.14
2024-01-28T23:35:33.987Z,21.14
2024-01-28T23:38:00.948Z,21.14
2024-01-28T23:40:28.318Z,21.07
2024-01-28T23:42:55.329Z,21.09
2024-01-28T23:45:22.001Z,21.14
2024-01-28T23:47:48.696Z,21.13
2024-01-28T23:50:15.930Z,21.13
2024-01-28T23:52:42.831Z,21.10
2024-01-28T23:55:10.426Z,21.10
2024-01-28T23:57:37.491Z,21.12
